Arnold, Maryland
Current Conditions -  °F | °C
As of 2:54 AM on Thursday 23 Oct 2014 (Local Time) from KNAK Reporting Station
Overcast Overcast  
Wind Chill: 12°   Ceiling: 3600
Heat Index: 12°   Visibility: 10mi
Dew Point:   Wind: 13mph
Humidity: 69%   Direction: 300°WNW
Pressure: 29.84"   Gusts: NA
Location:  39.03°N, 76.51°W
Report Text: KNAK 230654Z AUTO 30011KT 10SM BKN036 OVC070 12/07 A2984 RMK AO2 SLP105 T01220067
Loading
Personal Weather Stations






























Interactive Weather Map
Tropical Storm Tracking
New forecast layout! Learn more

10-Day Weather Forecast

Advertisements
Track Severe Weather on mobile